Terminal Aerodrome Forecast
Issued by NWS

Home | Current Version | Previous Version | Text Only | Print | Product List | Glossary On
Versions: 1 2 3 4 5 6 7 8 9 10 11 12 13 14 15 16
000
FTUS46 KSGX 032330
TAFONT
TAF
KONT 032330Z 0400/0506 27011KT P6SM SKC
     FM040200 25009KT P6SM SCT250
     FM041030 VRB04KT P6SM BKN020
     FM041700 VRB05KT P6SM BKN030
     FM042100 25012G18KT P6SM SCT035
     FM050500 VRB05KT P6SM BKN030=

USA.gov is the U.S. government's official web portal to all federal, state and local government web resources and services.